Logo AVAMET
Benvolgut visitant, si us plau, ingressa Recuperar contrasenya

Albatera

Dades diàries. Acumulats / Últims 30 dies disponibles

Data Temperatura (°C) Humitat rel. (%) Pressió rel. (hPa) Vent (km/h) Precipitació
Mínima Mitjana Màxima Amplitud
tèrmica
Mínima Mitjana Màxima Mínima Mitjana Màxima Predom. Mitjana Ràfega
màxima
Total
(mm)
Índex-n
Mínima Mitjana Màxima Mínima Mitjana Màxima n
0 a 1
P0 max
mm 5'
Dades mensuals acumulades fins l'últim dia disponible
09/2019 16,7 20,5 24,3 24,4 22,1 28,9 34,1 17,4 8 60 85 1.008 1.017 1.024   6,2 56,3 198,8
Dades anuals acumulades fins l'últim dia disponible
2019 2,0 13,4 24,3 19,1 13,7 25,3 41,0 39,0 0 49 87 0 947 1.035   6,3 78,9 363,4
Últims 30 dies disponibles
24-09-2019 18,4     25,8     33,9 15,5 19 50 74 1.014 1.017 1.019 NE 5,6 24,1 0,0
23-09-2019 18,8     24,4     30,7 11,9 NE 4,7 27,4 0,0
22-09-2019 21,7     26,2     32,1 10,4 32 60 79 1.012 1.013 1.016 W 5,1 30,6 0,0
21-09-2019 22,1     25,4     29,2 7,1 45 61 73 1.012 1.013 1.015 NE 3,7 24,1 0,0
20-09-2019 22,0     24,4     27,3 5,3 57 66 74 1.014 1.016 1.017 SSW 6,9 32,2 0,0
19-09-2019 18,9     24,0     28,7 9,8 44 64 76 1.015 1.017 1.018 WSW 4,0 20,9 0,0
18-09-2019 20,2     24,3     29,8 9,6 54 67 73 1.014 1.016 1.016 WSW 4,2 19,3 0,0
17-09-2019 20,9     23,9     28,1 7,2 ENE 5,5 29,0 0,0
16-09-2019 20,8     24,9     29,8 9,0 W 5,1 25,7 0,0
15-09-2019 20,1     24,6     29,6 9,5 NE 8,9 35,4 0,0
14-09-2019 19,1     22,2     24,9 5,8 NE 7,7 56,3 13,0
13-09-2019 18,3     21,7     25,4 7,1 62 74 83 1.020 1.022 1.023 NE 8,9 48,3 41,8 0,56 6,10
12-09-2019 16,7     19,4     22,1 5,4 72 79 85 1.017 1.021 1.024 SSE 8,7 53,1 122,8 0,43 11,80
11-09-2019 16,7     19,7     22,4 5,7 34 51 70 1.013 1.017 1.021 SE 9,1 53,1 20,8 0,37 5,20
10-09-2019 19,2     24,1     29,3 10,1 8 37 69 1.008 1.010 1.014 ESE 10,0 48,3 0,0
09-09-2019 19,2     24,7     31,0 11,8 36 57 74 1.013 1.016 1.018 SSO 4,6 29,0 0,0
08-09-2019 20,2     24,0     28,3 8,1 40 57 68 1.016 1.017 1.019 S 5,3 32,2 0,0
07-09-2019 22,0     24,4     27,9 5,9 48 59 70 1.018 1.019 1.020 SSO 7,3 32,2 0,2
06-09-2019 22,8     25,3     29,2 6,4 46 59 71 1.017 1.018 1.019 SO 7,3 33,8 0,2
05-09-2019 23,6     25,9     29,8 6,2 44 60 71 1.016 1.017 1.019 SSO 5,2 33,8 0,0
04-09-2019 21,9     26,1     30,6 8,7 46 61 75 1.016 1.018 1.020 S 4,8 29,0 0,0
03-09-2019 22,3     26,2     30,4 8,1 44 60 72 1.019 1.020 1.022 S 4,8 32,2 0,0
02-09-2019 24,3     26,6     29,1 4,8 51 60 68 1.018 1.019 1.020 SSO 6,0 32,2 0,0
01-09-2019 20,6     27,4     34,1 13,5 O 5,5 29,0 0,0
31-08-2019 21,0     26,8     32,9 11,9 0 0 0 0 0 0 W 4,0 29,0 0,0
30-08-2019 20,0     26,1     32,2 12,2 0 0 0 0 0 0 WSW 3,9 25,7 0,0
29-08-2019 21,2     25,8     31,1 9,9 0 0 0 0 0 0 W 3,9 24,1 0,0
28-08-2019 19,2     25,2     31,1 11,9 0 0 0 0 0 0 WSW 4,0 27,4 0,0
27-08-2019 20,4     23,6     30,7 10,3 0 0 0 0 0 0 NE 4,3 54,7 12,4
26-08-2019 23,2     26,1     29,7 6,5 0 0 0 0 0 0 SSW 8,4 37,0 2,0
Últims 13 mesos disponibles
09/2019 16,7 20,4 24,3 24,4 22,1 28,9 34,1 17,4 37 60 79 1.010 1.017 1.022 NE 6,2 56,3 198,8
06/2019 12,8 17,3 21,3 24,1 24,6 30,5 36,4 23,6 28 48 61 1.009 1.015 1.022 S 6,7 49,9 0,4
05/2019 11,2 14,3 19,4 20,1 21,3 26,4 32,9 21,7 34 54 66 1.006 1.015 1.025 S 6,5 57,9 3,0
04/2019 8,2 11,3 14,2 16,2 14,5 21,8 30,0 21,8 43 58 83 1.000 1.013 1.025 NE 6,4 64,4 123,2
03/2019 5,6 8,0 12,7 14,6 15,3 21,4 28,6 23,0 38 52 81 1.011 1.023 1.030 NE 5,4 49,9 19,0
02/2019 4,6 6,6 11,1 12,7 15,1 19,6 26,8 22,2 27 50 69 997 1.024 1.033 SSE 7,3 78,9 0,8
01/2019 2,0 7,1 12,7 12,5 13,7 18,0 22,5 20,5 36 48 70 1.005 1.016 1.028 E 7,5 53,1 3,4
11/2018 8,1 8,7 9,8 14,3 19,5 21,2 22,9 14,8 51 57 77 1.007 1.015 1.020 E 5,2 30,6 3,2
10/2018 7,1 14,1 17,0 19,3 13,7 25,6 29,9 22,8 35 65 88 1.000 1.014 1.025 SSE 5,2 53,1 45,2
Tots els anys disponibles
Temperatura (°C)
Humitat relativa (%)
Velocitat del vent i ràfega màxima (km/h)
Direcció del vent (°)
Pressió (hPa)
Precipitació (mm)
Nota sobre les dades: s'avisa a l'usuari de la provisionalitat i no oficialitat d'aquestes dades
Logo AVAMET blanc
Web allotjada a Sollutia
Llicència de Creative CommonsLa web d'AVAMET i els seus continguts estan subjectes a una llicència de
Reconeixement - No Comercial - Compartir igual
Últimes estacions: Xàbia - La Plana (Soci), Banyeres de Mariola - Molí Sol (Soci), Villena - Villa Ventín (Soci), Benissa - Convent (Soci), Xàbia Fontanella (Soci), Castielfabib (Soci), - - -